Avondale, CO

2:15 AM MDT on October 22, 2014 (GMT -0600)
Pueblo Memorial | Change Station
CLOSE
Current Station
Airport
Location: Pueblo,
Elevation: 4721 ft
Nearby Weather Stations

Elev 4721 ft 38.29 °N, 104.50 °W | Updated 22 minutes ago

Partly Cloudy
Partly Cloudy
52 °F
Feels Like 52 °F
N
0
Wind Variable Wind from North

Today
High -- | Low -- °F
--% Chance of Precip.
Yesterday
High -- | Low -- °F
Precip. -- in
7:13 AM 6:10 PM
Waning Crescent, 3% visible
Pressure 29.80 in
Visibility 10.0 miles
Clouds Clear
Dew Point 41 °F
Humidity 66%
Rainfall 0.00 in
Snow Depth Not available.
UV 0 out of 12
Pollen 2.40 out of 12
Air Quality Not available.
Flu Activity Sporadic
METAR KPUB 220753Z AUTO 00000KT 10SM CLR 11/05 A2994 RMK AO2 SLP091 T01110050

More Conditions Fewer Conditions

Pressure 29.80 in
Visibility 10.0 miles
Clouds Clear
Dew Point 41 °F
Humidity 66%
Rainfall 0.00 in
Snow Depth Not available.
UV 0 out of 12
Pollen 2.40 out of 12
Air Quality Not available.
Flu Activity Sporadic
METAR KPUB 220753Z AUTO 00000KT 10SM CLR 11/05 A2994 RMK AO2 SLP091 T01110050

More Conditions Fewer Conditions

10-Day Weather Forecast

Almanac

Astronomy

Oct. 22, 2014 Rise Set
Actual Time 7:13 AM MDT 6:10 PM MDT
Civil Twilight 6:46 AM MDT 6:37 PM MDT
Nautical Twilight 6:15 AM MDT 7:07 PM MDT
Astronomical Twilight 5:45 AM MDT 7:38 PM MDT
Moon 5:58 AM MDT 5:37 PM MDT
Length of Visible Light 11h 50m
Length of Day
10h 57m
Tomorrow will be 2m 18s shorter.
Waning Crescent, 3% of the Moon is Illuminated
Today
Waning Crescent
Oct 23
New
Oct 30
First Quarter
Nov 6
Full
Nov 14
Last Quarter

Today's Extremes

State Highs State Lows

Community

WunderPhotos

Upload Photos

1,763,889 photos uploaded!

Nearby

Snow Depth

Station Depth Elevation
Medano Pass 1 in 9620 ft
South Colony 0 in 10800 ft
Glen Cove 1 in 11460 ft
Ute Creek 0 in 10650 ft
Apishapa 0 in 10000 ft

Earthquake Activity

City Distance Mag. Time & Date
Trinidad, Colorado 78 miles 2.7 10:33 PM MDT
2014-10-20
Trinidad, Colorado 67 miles 2.5 10:01 PM MDT
2014-10-19
Minimum magnitude displayed is 2.5.

Coastal Water Temperatures

Place Temperature
No Stations Reporting

Nearby Weather Stations